Time;durP1;ratioP1;P1;durP2;ratioP2;P2;SDS_P1;SDS_P2;PMS_P1;PMS_P2;Temp;Humidity;BMP_temperature;BMP_pressure;BME280_temperature;BME280_humidity;BME280_pressure;Samples;Min_cycle;Max_cycle;Signal;HPM_P1;HPM_P2
2021/01/03 00:00:58;;;;;;;41.13;25.40;;;-0.80;78.10;;;;;;5107514;28;20051;-74
2021/01/03 00:03:29;;;;;;;36.05;22.77;;;-0.70;78.10;;;;;;5125099;28;20542;-75
2021/01/03 00:06:01;;;;;;;36.55;24.13;;;-0.70;78.00;;;;;;5093571;28;20489;-74
2021/01/03 00:08:32;;;;;;;36.08;22.80;;;-0.70;78.80;;;;;;5115624;28;20038;-74
2021/01/03 00:11:04;;;;;;;38.53;23.48;;;-0.70;77.90;;;;;;5107222;28;20126;-75
2021/01/03 00:13:35;;;;;;;32.17;23.38;;;-0.70;78.00;;;;;;5118262;28;21090;-75
2021/01/03 00:16:07;;;;;;;43.05;25.00;;;-0.70;78.80;;;;;;5105214;28;20044;-75
2021/01/03 00:18:39;;;;;;;34.70;23.15;;;-0.70;77.70;;;;;;5126977;28;20068;-75
2021/01/03 00:21:11;;;;;;;35.88;24.10;;;-0.70;78.10;;;;;;5109850;28;20179;-75
2021/01/03 00:23:43;;;;;;;37.38;23.45;;;-0.70;77.90;;;;;;5111167;28;20039;-75
2021/01/03 00:26:14;;;;;;;32.88;22.30;;;-0.70;78.00;;;;;;5109700;28;20055;-75
2021/01/03 00:28:46;;;;;;;36.97;23.08;;;-0.70;77.80;;;;;;5124042;28;20498;-75
2021/01/03 00:31:17;;;;;;;34.47;22.92;;;-0.70;77.90;;;;;;5116809;28;20047;-76
2021/01/03 00:33:49;;;;;;;34.38;23.30;;;-0.70;77.90;;;;;;5122960;28;20617;-77
2021/01/03 00:36:21;;;;;;;37.13;24.48;;;-0.70;77.70;;;;;;5123222;28;20137;-76
2021/01/03 00:38:52;;;;;;;33.60;22.63;;;-0.70;77.90;;;;;;5123231;28;20062;-76
2021/01/03 00:41:24;;;;;;;36.28;22.35;;;-0.70;77.70;;;;;;5109732;28;20055;-76
2021/01/03 00:43:55;;;;;;;38.97;24.10;;;-0.70;77.50;;;;;;5109402;28;20087;-76
2021/01/03 00:46:27;;;;;;;36.22;24.00;;;-0.70;77.70;;;;;;5105341;28;20054;-76
2021/01/03 00:48:58;;;;;;;38.35;23.77;;;-0.60;77.50;;;;;;5125276;28;20046;-76
2021/01/03 00:51:31;;;;;;;35.60;22.70;;;-0.60;77.60;;;;;;5084203;28;20437;-75
2021/01/03 00:54:02;;;;;;;33.92;23.08;;;-0.60;77.50;;;;;;5124865;28;20039;-76
2021/01/03 00:56:34;;;;;;;38.72;24.77;;;-0.60;77.70;;;;;;5108050;28;20043;-76
2021/01/03 00:59:06;;;;;;;35.00;22.67;;;-0.60;77.50;;;;;;5127725;28;20141;-76
2021/01/03 01:01:37;;;;;;;36.30;23.05;;;-0.60;77.40;;;;;;5091566;28;20176;-75
2021/01/03 01:04:09;;;;;;;34.33;22.83;;;-0.60;77.40;;;;;;5124863;28;20677;-76
2021/01/03 01:06:40;;;;;;;38.13;23.83;;;-0.60;77.40;;;;;;5106994;28;20217;-75
2021/01/03 01:09:12;;;;;;;38.88;24.20;;;-0.70;77.40;;;;;;5117997;28;20047;-75
2021/01/03 01:11:44;;;;;;;35.92;23.80;;;-0.60;77.40;;;;;;5101282;28;20062;-76
2021/01/03 01:14:15;;;;;;;37.20;23.70;;;-0.60;77.50;;;;;;5124849;28;20050;-76
2021/01/03 01:16:47;;;;;;;39.13;23.60;;;-0.60;77.40;;;;;;5125854;28;20651;-75
2021/01/03 01:19:18;;;;;;;36.53;22.50;;;-0.60;77.40;;;;;;5125896;28;20047;-76
2021/01/03 01:21:50;;;;;;;36.95;22.85;;;-0.60;77.60;;;;;;5083861;28;20150;-75
2021/01/03 01:24:21;;;;;;;39.85;23.67;;;-0.60;77.50;;;;;;5124657;28;20047;-75
2021/01/03 01:26:54;;;;;;;37.53;24.48;;;-0.60;77.40;;;;;;5109012;28;20070;-74
2021/01/03 01:29:25;;;;;;;40.95;24.73;;;-0.60;77.40;;;;;;5084813;28;20051;-74
2021/01/03 01:31:57;;;;;;;40.78;23.77;;;-0.60;77.30;;;;;;5107609;28;20055;-74
2021/01/03 01:34:28;;;;;;;36.35;23.23;;;-0.60;77.10;;;;;;5105199;28;20457;-75
2021/01/03 01:36:59;;;;;;;37.90;23.55;;;-0.60;77.20;;;;;;5101185;28;20042;-75
2021/01/03 01:39:31;;;;;;;38.33;24.52;;;-0.50;77.30;;;;;;5122651;28;20049;-75
2021/01/03 01:42:02;;;;;;;34.78;22.52;;;-0.50;77.30;;;;;;5125077;28;20057;-75
2021/01/03 01:44:34;;;;;;;37.33;24.10;;;-0.50;77.40;;;;;;5107940;28;20735;-75
2021/01/03 01:47:20;;;;;;;38.65;23.90;;;-0.50;77.20;;;;;;5109874;28;20050;-75
2021/01/03 01:49:53;;;;;;;34.92;23.20;;;-0.50;77.10;;;;;;5117750;28;20046;-74
2021/01/03 01:52:32;;;;;;;36.20;23.17;;;-0.50;77.20;;;;;;5120408;28;20366;-75
2021/01/03 01:55:09;;;;;;;37.95;24.48;;;-0.50;77.10;;;;;;5123079;28;20043;-75
2021/01/03 01:58:05;;;;;;;37.70;24.38;;;-0.50;77.10;;;;;;5124430;28;20039;-74
2021/01/03 02:00:38;;;;;;;33.47;22.33;;;-0.50;77.20;;;;;;5124072;28;20043;-74
2021/01/03 02:03:19;;;;;;;35.17;23.00;;;-0.50;77.30;;;;;;5121913;28;20055;-73
2021/01/03 02:05:59;;;;;;;37.40;23.38;;;-0.50;77.00;;;;;;5121532;28;20047;-74
2021/01/03 02:08:48;;;;;;;37.45;23.38;;;-0.60;77.30;;;;;;5103364;28;20103;-73
2021/01/03 02:11:24;;;;;;;36.15;23.20;;;-0.50;77.30;;;;;;5120464;28;20055;-73
2021/01/03 02:13:58;;;;;;;35.70;23.25;;;-0.60;77.10;;;;;;5124287;28;20031;-74
2021/01/03 02:16:33;;;;;;;39.30;23.65;;;-0.50;77.20;;;;;;5122993;28;20040;-74
2021/01/03 02:19:13;;;;;;;38.35;24.27;;;-0.50;77.30;;;;;;5118016;28;20039;-74
2021/01/03 02:21:52;;;;;;;43.90;26.50;;;-0.50;77.30;;;;;;5124670;28;20489;-73
2021/01/03 02:24:39;;;;;;;37.20;24.75;;;-0.60;77.10;;;;;;5123907;28;20126;-73
2021/01/03 02:27:26;;;;;;;37.58;23.80;;;-0.50;77.10;;;;;;5121485;28;20572;-74
2021/01/03 02:30:00;;;;;;;33.10;23.05;;;-0.50;77.10;;;;;;5124449;28;20043;-73
2021/01/03 02:32:34;;;;;;;34.75;22.75;;;-0.50;77.30;;;;;;5121982;28;20047;-75
2021/01/03 02:35:08;;;;;;;37.20;24.35;;;-0.60;77.00;;;;;;5117778;28;20042;-75
2021/01/03 02:37:47;;;;;;;35.55;23.85;;;-0.60;77.00;;;;;;5124679;28;20070;-75
2021/01/03 02:40:24;;;;;;;36.63;22.73;;;-0.60;77.00;;;;;;5119423;28;20493;-75
2021/01/03 02:42:56;;;;;;;36.90;23.67;;;-0.60;76.90;;;;;;5089384;28;20571;-75
2021/01/03 02:45:30;;;;;;;35.88;23.58;;;-0.60;76.80;;;;;;5121545;28;20131;-76
2021/01/03 02:48:19;;;;;;;35.88;24.02;;;-0.60;77.00;;;;;;5123742;28;20421;-75
2021/01/03 02:50:51;;;;;;;34.13;23.15;;;-0.50;77.10;;;;;;5099636;28;20146;-75
2021/01/03 02:53:22;;;;;;;36.10;22.65;;;-0.50;76.90;;;;;;5120288;28;20046;-75
2021/01/03 02:55:54;;;;;;;35.72;22.98;;;-0.50;77.00;;;;;;5123991;28;20055;-75
2021/01/03 02:58:25;;;;;;;38.88;24.08;;;-0.50;77.10;;;;;;5122891;28;20047;-75
2021/01/03 03:00:57;;;;;;;39.67;25.30;;;-0.50;77.10;;;;;;5106998;28;20054;-75
2021/01/03 03:03:28;;;;;;;39.33;23.95;;;-0.60;77.10;;;;;;5123833;28;20051;-75
2021/01/03 03:06:00;;;;;;;39.20;23.58;;;-0.60;77.40;;;;;;5122695;28;20054;-73
2021/01/03 03:08:32;;;;;;;37.13;23.40;;;-0.60;77.30;;;;;;5116963;28;20154;-75
2021/01/03 03:11:03;;;;;;;41.03;23.95;;;-0.60;77.20;;;;;;5099165;28;20046;-75
2021/01/03 03:13:35;;;;;;;42.40;25.10;;;-0.60;77.20;;;;;;5122973;28;20071;-75
2021/01/03 03:16:06;;;;;;;38.80;24.40;;;-0.60;77.20;;;;;;5125133;28;20118;-74
2021/01/03 03:18:37;;;;;;;38.67;23.73;;;-0.60;77.20;;;;;;5124335;28;20043;-75
2021/01/03 03:21:09;;;;;;;34.35;21.80;;;-0.60;77.60;;;;;;5124432;28;20518;-75
2021/01/03 03:23:41;;;;;;;41.85;24.88;;;-0.60;77.50;;;;;;5107245;28;20646;-75
2021/01/03 03:26:13;;;;;;;35.40;22.90;;;-0.60;77.40;;;;;;5107967;28;20047;-74
2021/01/03 03:28:45;;;;;;;38.10;24.25;;;-0.60;77.30;;;;;;5107458;28;20142;-75
2021/01/03 03:31:16;;;;;;;42.03;24.15;;;-0.60;77.20;;;;;;5102837;28;20039;-73
2021/01/03 03:33:48;;;;;;;38.42;23.52;;;-0.60;77.00;;;;;;5084855;28;20057;-74
2021/01/03 03:36:20;;;;;;;40.30;24.95;;;-0.60;77.30;;;;;;5092035;28;20047;-75
2021/01/03 03:38:51;;;;;;;42.33;24.52;;;-0.50;77.40;;;;;;5131712;28;20047;-75
2021/01/03 03:41:24;;;;;;;39.08;23.40;;;-0.60;77.20;;;;;;5125772;28;20051;-75
2021/01/03 03:43:56;;;;;;;37.45;23.75;;;-0.60;77.30;;;;;;5095405;28;20050;-75
2021/01/03 03:46:27;;;;;;;38.58;24.35;;;-0.60;77.30;;;;;;5106784;28;20047;-75
2021/01/03 03:48:59;;;;;;;38.83;23.73;;;-0.60;77.30;;;;;;5128024;28;20050;-75
2021/01/03 03:51:31;;;;;;;42.33;24.27;;;-0.60;77.50;;;;;;5087460;28;20621;-74
2021/01/03 03:54:03;;;;;;;38.63;24.27;;;-0.60;77.40;;;;;;5125070;28;20039;-74
2021/01/03 03:56:34;;;;;;;36.90;23.13;;;-0.60;77.30;;;;;;5094466;28;20059;-74
2021/01/03 03:59:06;;;;;;;39.03;23.98;;;-0.50;77.40;;;;;;5108191;28;20051;-74
2021/01/03 04:01:38;;;;;;;34.25;22.73;;;-0.60;77.30;;;;;;5124531;28;20105;-74
2021/01/03 04:04:11;;;;;;;36.00;23.15;;;-0.60;77.20;;;;;;5111136;28;20043;-74
2021/01/03 04:06:42;;;;;;;38.00;24.02;;;-0.60;76.90;;;;;;5128577;28;20870;-74
2021/01/03 04:09:15;;;;;;;37.10;23.83;;;-0.60;77.20;;;;;;5128245;28;20569;-74
2021/01/03 04:11:49;;;;;;;40.13;23.98;;;-0.60;77.20;;;;;;5129887;28;20417;-74
2021/01/03 04:14:23;;;;;;;39.25;24.50;;;-0.60;77.20;;;;;;5111019;28;20061;-74
2021/01/03 04:16:57;;;;;;;37.13;24.83;;;-0.60;77.20;;;;;;5126941;28;20055;-73
2021/01/03 04:19:29;;;;;;;37.95;23.98;;;-0.60;77.30;;;;;;5127312;28;20035;-74
2021/01/03 04:22:04;;;;;;;38.95;24.95;;;-0.60;77.50;;;;;;5110979;28;20838;-73
2021/01/03 04:24:35;;;;;;;39.92;24.85;;;-0.60;77.40;;;;;;5107943;28;20132;-74
2021/01/03 04:27:09;;;;;;;36.33;23.25;;;-0.60;77.50;;;;;;5108833;28;20105;-73
2021/01/03 04:29:40;;;;;;;37.90;23.23;;;-0.60;77.50;;;;;;5110410;28;20039;-74
2021/01/03 04:32:12;;;;;;;39.33;24.98;;;-0.60;77.40;;;;;;5111233;28;20591;-74
2021/01/03 04:34:43;;;;;;;38.05;24.20;;;-0.70;77.60;;;;;;5085555;28;20039;-73
2021/01/03 04:37:19;;;;;;;38.55;23.55;;;-0.70;77.60;;;;;;5128214;28;20043;-74
2021/01/03 04:39:51;;;;;;;38.10;23.98;;;-0.70;77.50;;;;;;5112048;28;20071;-74
2021/01/03 04:42:28;;;;;;;35.03;23.80;;;-0.70;77.50;;;;;;5086403;28;20046;-74
2021/01/03 04:45:05;;;;;;;30.45;22.30;;;-0.60;77.50;;;;;;5129534;28;20058;-74
2021/01/03 04:47:45;;;;;;;35.38;24.15;;;-0.60;77.20;;;;;;5145916;28;20109;-74
2021/01/03 04:50:20;;;;;;;36.65;24.58;;;-0.60;77.80;;;;;;5145532;28;20070;-74
2021/01/03 04:53:15;;;;;;;35.72;23.40;;;-0.60;77.00;;;;;;5129978;28;20532;-74
2021/01/03 04:56:08;;;;;;;36.38;23.10;;;-0.60;76.90;;;;;;5150196;28;20046;-74
2021/01/03 04:58:54;;;;;;;35.72;22.75;;;-0.60;76.90;;;;;;5116204;28;20042;-74
2021/01/03 05:01:38;;;;;;;34.65;22.95;;;-0.60;76.90;;;;;;5128089;28;20456;-74
2021/01/03 05:04:29;;;;;;;37.83;23.55;;;-0.50;76.70;;;;;;5145710;28;20101;-75
2021/01/03 05:07:10;;;;;;;38.35;24.15;;;-0.60;76.70;;;;;;5124444;28;20047;-74
2021/01/03 05:09:42;;;;;;;34.30;23.60;;;-0.60;76.80;;;;;;5148454;28;20065;-74
2021/01/03 05:12:21;;;;;;;37.00;23.60;;;-0.60;77.00;;;;;;5148123;28;20045;-74
2021/01/03 05:15:11;;;;;;;35.90;23.27;;;-0.60;76.80;;;;;;5150759;28;20042;-75
2021/01/03 05:17:43;;;;;;;38.33;23.38;;;-0.60;77.10;;;;;;5138148;28;20553;-76
2021/01/03 05:20:14;;;;;;;32.88;22.73;;;-0.70;77.40;;;;;;5118961;28;20051;-76
2021/01/03 05:22:46;;;;;;;34.00;23.40;;;-0.70;77.20;;;;;;5146795;28;20461;-76
2021/01/03 05:25:20;;;;;;;33.70;23.00;;;-0.70;78.10;;;;;;5143453;28;20525;-75
2021/01/03 05:28:05;;;;;;;33.80;23.80;;;-0.70;77.20;;;;;;5125002;28;21713;-74
2021/01/03 05:30:36;;;;;;;31.73;21.73;;;-0.70;77.50;;;;;;5125539;28;20051;-74
2021/01/03 05:33:11;;;;;;;33.58;23.45;;;-0.70;77.90;;;;;;5094110;28;20035;-74
2021/01/03 05:35:44;;;;;;;35.80;23.10;;;-0.70;77.50;;;;;;5126161;28;20035;-74
2021/01/03 05:38:40;;;;;;;34.50;23.30;;;-0.70;77.70;;;;;;5123466;28;20035;-74
2021/01/03 05:41:26;;;;;;;33.83;22.75;;;-0.70;77.70;;;;;;5124786;28;20043;-74
2021/01/03 05:44:13;;;;;;;38.05;23.30;;;-0.70;77.70;;;;;;5108398;28;20062;-75
2021/01/03 05:46:51;;;;;;;34.70;23.02;;;-0.70;77.80;;;;;;5124384;28;20047;-75
2021/01/03 05:49:25;;;;;;;33.53;22.17;;;-0.80;77.90;;;;;;5124062;28;20070;-75
2021/01/03 05:52:23;;;;;;;35.72;22.27;;;-0.70;78.00;;;;;;5126659;28;20050;-75
2021/01/03 05:55:01;;;;;;;36.90;24.20;;;-0.80;78.00;;;;;;5123388;28;20035;-75
2021/01/03 05:57:37;;;;;;;32.70;22.15;;;-0.80;78.00;;;;;;5142627;28;20464;-75
2021/01/03 06:00:24;;;;;;;35.33;23.70;;;-0.80;78.00;;;;;;5143781;28;20071;-75
2021/01/03 06:03:21;;;;;;;34.30;23.08;;;-0.70;77.80;;;;;;5124151;28;20047;-75
2021/01/03 06:06:18;;;;;;;35.53;22.90;;;-0.70;77.70;;;;;;5125787;28;20817;-75
2021/01/03 06:08:58;;;;;;;37.92;23.52;;;-0.70;77.50;;;;;;5125994;28;20051;-75
2021/01/03 06:11:29;;;;;;;39.33;22.95;;;-0.70;77.50;;;;;;5109544;28;20047;-75
2021/01/03 06:14:01;;;;;;;36.35;22.45;;;-0.70;77.50;;;;;;5094660;28;20051;-75
2021/01/03 06:16:46;;;;;;;37.67;23.10;;;-0.70;77.60;;;;;;5127206;28;20046;-75
2021/01/03 06:19:32;;;;;;;37.78;23.50;;;-0.70;77.50;;;;;;5115945;28;20031;-75
2021/01/03 06:22:12;;;;;;;35.72;24.08;;;-0.70;77.30;;;;;;5124341;28;20508;-74
2021/01/03 06:24:46;;;;;;;36.05;24.15;;;-0.80;77.20;;;;;;5101744;28;20047;-74
2021/01/03 06:27:30;;;;;;;34.38;23.05;;;-0.80;77.40;;;;;;5106891;28;20405;-74
2021/01/03 06:30:09;;;;;;;33.30;22.35;;;-0.80;77.30;;;;;;5101961;28;20402;-75
2021/01/03 06:33:03;;;;;;;33.15;22.30;;;-0.80;77.50;;;;;;5136305;28;20098;-75
2021/01/03 06:35:44;;;;;;;36.38;24.77;;;-0.80;77.30;;;;;;5134246;28;20047;-74
2021/01/03 06:38:50;;;;;;;34.60;23.13;;;-0.80;77.40;;;;;;5124870;28;20047;-74
2021/01/03 06:41:27;;;;;;;35.78;23.35;;;-0.80;77.80;;;;;;5121493;28;20191;-77
2021/01/03 06:44:28;;;;;;;37.90;25.13;;;-0.80;77.70;;;;;;5127929;28;20050;-76
2021/01/03 06:47:26;;;;;;;38.83;23.90;;;-0.80;77.50;;;;;;5111304;28;20075;-76
2021/01/03 06:50:01;;;;;;;36.20;23.05;;;-0.80;77.40;;;;;;5124039;28;20043;-76
2021/01/03 06:52:49;;;;;;;33.63;23.83;;;-0.70;77.40;;;;;;5108562;28;20039;-76
2021/01/03 06:55:58;;;;;;;33.20;22.63;;;-0.70;77.50;;;;;;5125390;28;20927;-75
2021/01/03 06:59:00;;;;;;;33.80;22.55;;;-0.70;77.00;;;;;;5126364;28;20083;-76
2021/01/03 07:01:36;;;;;;;31.50;22.40;;;-0.70;77.30;;;;;;5125061;28;20039;-76
2021/01/03 07:04:20;;;;;;;33.08;21.83;;;-0.70;77.20;;;;;;5123308;28;20129;-76
2021/01/03 07:06:54;;;;;;;33.08;22.15;;;-0.70;77.10;;;;;;5123794;28;20046;-76
2021/01/03 07:09:25;;;;;;;37.42;24.17;;;-0.70;77.10;;;;;;5121729;28;20074;-75
2021/01/03 07:11:58;;;;;;;38.38;23.80;;;-0.70;77.20;;;;;;5127244;28;20128;-75
2021/01/03 07:14:37;;;;;;;44.00;25.63;;;-0.70;77.20;;;;;;5104052;28;20153;-77
2021/01/03 07:17:16;;;;;;;37.63;22.15;;;-0.70;77.20;;;;;;5117750;28;20057;-77
2021/01/03 07:19:57;;;;;;;33.35;22.05;;;-0.70;77.60;;;;;;5088715;28;20047;-77
2021/01/03 07:22:39;;;;;;;36.28;23.75;;;-0.80;77.30;;;;;;5125502;28;20095;-75
2021/01/03 07:25:23;;;;;;;36.83;23.55;;;-0.70;77.40;;;;;;5138584;28;20704;-76
2021/01/03 07:28:17;;;;;;;34.10;21.85;;;-0.70;77.30;;;;;;5128190;28;20125;-75
2021/01/03 07:30:58;;;;;;;34.08;21.55;;;-0.70;77.20;;;;;;5126064;28;20051;-77
2021/01/03 07:34:00;;;;;;;30.27;21.08;;;-0.60;77.20;;;;;;5126492;28;20046;-75
2021/01/03 07:36:37;;;;;;;33.15;22.40;;;-0.70;77.00;;;;;;5126693;28;20055;-75
2021/01/03 07:39:14;;;;;;;36.35;22.92;;;-0.60;77.20;;;;;;5124167;28;20054;-76
2021/01/03 07:41:47;;;;;;;36.00;22.58;;;-0.60;77.10;;;;;;5127659;28;20047;-76
2021/01/03 07:44:22;;;;;;;32.40;21.67;;;-0.60;77.00;;;;;;5128521;28;20502;-76
2021/01/03 07:46:59;;;;;;;34.72;21.75;;;-0.60;77.00;;;;;;5127693;28;20039;-76
2021/01/03 07:49:47;;;;;;;36.42;21.92;;;-0.60;77.00;;;;;;5102838;28;20075;-75
2021/01/03 07:52:18;;;;;;;32.15;21.58;;;-0.60;77.00;;;;;;5108850;28;20462;-76
2021/01/03 07:54:52;;;;;;;34.47;22.48;;;-0.50;76.80;;;;;;5107775;28;20051;-75
2021/01/03 07:57:28;;;;;;;31.98;21.92;;;-0.50;76.80;;;;;;5125968;28;20042;-76
2021/01/03 08:00:00;;;;;;;34.78;22.23;;;-0.50;76.70;;;;;;5122519;28;20039;-77
2021/01/03 08:02:35;;;;;;;33.38;20.88;;;-0.60;76.90;;;;;;5121693;28;20058;-77
2021/01/03 08:05:07;;;;;;;31.75;21.20;;;-0.60;77.90;;;;;;5117694;28;20097;-77
2021/01/03 08:07:38;;;;;;;36.03;23.15;;;-0.60;77.00;;;;;;5098344;28;20043;-77
2021/01/03 08:10:11;;;;;;;37.05;23.85;;;-0.60;76.80;;;;;;5109741;28;20094;-77
2021/01/03 08:12:50;;;;;;;40.03;25.80;;;-0.60;77.10;;;;;;5132795;28;20679;-77
2021/01/03 08:15:27;;;;;;;37.60;24.43;;;-0.50;77.30;;;;;;5118431;28;20102;-77
2021/01/03 08:18:12;;;;;;;36.90;23.92;;;-0.50;77.20;;;;;;5102652;28;20050;-77
2021/01/03 08:20:44;;;;;;;36.72;22.27;;;-0.50;77.10;;;;;;5114963;28;20059;-77
2021/01/03 08:23:27;;;;;;;35.65;24.33;;;-0.60;77.60;;;;;;5118533;29;20536;-76
2021/01/03 08:26:07;;;;;;;38.20;23.35;;;-0.60;77.60;;;;;;5103141;28;20055;-74
2021/01/03 08:28:58;;;;;;;34.63;23.65;;;-0.60;77.50;;;;;;5102607;28;20066;-77
2021/01/03 08:31:30;;;;;;;40.75;25.02;;;-0.50;77.70;;;;;;5116640;28;20047;-78
2021/01/03 08:34:03;;;;;;;38.13;24.48;;;-0.50;77.40;;;;;;5100539;29;20051;-77
2021/01/03 08:36:36;;;;;;;35.72;23.73;;;-0.50;77.50;;;;;;5116763;28;20106;-77
2021/01/03 08:39:15;;;;;;;34.58;23.88;;;-0.50;77.50;;;;;;5117370;28;20536;-78
2021/01/03 08:41:59;;;;;;;40.67;25.25;;;-0.40;77.70;;;;;;5117399;28;20035;-77
2021/01/03 08:44:38;;;;;;;36.55;23.48;;;-0.40;77.60;;;;;;5116522;28;20067;-77
2021/01/03 08:47:22;;;;;;;37.40;24.83;;;-0.30;77.30;;;;;;5098884;28;20500;-78
2021/01/03 08:50:06;;;;;;;37.13;24.10;;;-0.30;77.30;;;;;;5114439;28;20039;-77
2021/01/03 08:52:38;;;;;;;36.30;23.40;;;-0.30;77.20;;;;;;5116378;28;20055;-77
2021/01/03 08:55:23;;;;;;;35.60;23.10;;;-0.20;77.00;;;;;;5115810;28;20692;-77
2021/01/03 08:58:02;;;;;;;34.47;22.95;;;-0.20;76.70;;;;;;5104368;28;20040;-78
2021/01/03 09:00:38;;;;;;;38.92;24.30;;;-0.10;77.00;;;;;;5100294;28;20476;-77
2021/01/03 09:03:19;;;;;;;36.85;23.08;;;0.00;77.00;;;;;;5119575;28;20034;-78
2021/01/03 09:05:52;;;;;;;41.65;24.48;;;0.10;77.10;;;;;;5087278;28;20108;-78
2021/01/03 09:08:29;;;;;;;38.42;23.90;;;0.20;77.20;;;;;;5118773;28;20509;-76
2021/01/03 09:11:28;;;;;;;37.42;22.65;;;0.40;75.90;;;;;;5117578;28;20110;-78
2021/01/03 09:14:33;;;;;;;35.80;22.77;;;0.50;75.80;;;;;;5116422;29;20035;-78
2021/01/03 09:17:12;;;;;;;35.42;23.83;;;0.60;76.50;;;;;;5115036;28;20050;-78
2021/01/03 09:20:00;;;;;;;38.65;24.80;;;0.70;76.30;;;;;;5100238;28;20043;-80
2021/01/03 09:22:38;;;;;;;37.03;24.35;;;0.80;75.80;;;;;;5117663;28;20046;-77
2021/01/03 09:25:13;;;;;;;40.72;26.30;;;0.90;74.80;;;;;;5118389;28;20151;-79
2021/01/03 09:27:50;;;;;;;42.15;27.10;;;1.00;74.80;;;;;;5118393;28;20157;-80
2021/01/03 09:30:43;;;;;;;41.10;27.48;;;1.00;73.90;;;;;;5116564;28;20054;-79
2021/01/03 09:33:21;;;;;;;38.55;25.95;;;1.10;74.10;;;;;;5115643;28;20048;-77
2021/01/03 09:36:04;;;;;;;34.95;23.95;;;1.20;74.10;;;;;;5099080;28;20035;-78
2021/01/03 09:38:38;;;;;;;38.15;25.15;;;1.20;73.50;;;;;;5117489;28;20073;-76
2021/01/03 09:41:32;;;;;;;36.70;26.17;;;1.20;73.90;;;;;;5079315;28;20391;-79
2021/01/03 09:44:06;;;;;;;36.33;25.15;;;1.20;73.80;;;;;;5117058;28;20051;-77
2021/01/03 09:46:50;;;;;;;33.17;23.52;;;1.30;74.10;;;;;;5117713;28;20048;-78
2021/01/03 09:49:44;;;;;;;35.50;23.45;;;1.40;73.30;;;;;;5119236;28;20051;-77
2021/01/03 09:52:30;;;;;;;34.60;23.70;;;1.30;74.00;;;;;;5119616;28;20098;-77
2021/01/03 09:55:02;;;;;;;32.55;23.75;;;1.40;73.50;;;;;;5113295;28;20125;-78
2021/01/03 09:57:55;;;;;;;31.88;23.27;;;1.50;73.60;;;;;;5118412;28;20044;-78
2021/01/03 10:00:46;;;;;;;32.15;23.98;;;1.50;73.10;;;;;;5118955;28;20106;-78
2021/01/03 10:03:38;;;;;;;34.95;24.58;;;1.60;73.10;;;;;;5119382;28;20051;-77
2021/01/03 10:06:14;;;;;;;30.83;22.58;;;1.70;72.30;;;;;;5121935;28;20075;-77
2021/01/03 10:08:48;;;;;;;32.20;23.05;;;1.80;72.60;;;;;;5121152;28;20047;-78
2021/01/03 10:11:31;;;;;;;35.38;24.35;;;1.80;71.90;;;;;;5122425;28;20051;-77
2021/01/03 10:14:10;;;;;;;38.90;26.77;;;1.90;71.90;;;;;;5121670;28;20071;-78
2021/01/03 10:16:43;;;;;;;36.33;25.42;;;2.00;71.90;;;;;;5123640;28;20113;-78
2021/01/03 10:19:17;;;;;;;33.63;24.05;;;2.00;71.70;;;;;;5117594;28;20100;-78
2021/01/03 10:21:51;;;;;;;31.73;23.05;;;2.00;71.50;;;;;;5101042;28;20047;-78
2021/01/03 10:24:25;;;;;;;30.15;22.80;;;2.00;71.10;;;;;;5117087;28;20063;-78
2021/01/03 10:27:03;;;;;;;36.50;24.20;;;2.10;72.00;;;;;;5102985;28;20126;-78
2021/01/03 10:29:35;;;;;;;32.95;21.88;;;2.10;71.40;;;;;;5118542;28;20524;-79
2021/01/03 10:32:07;;;;;;;31.70;23.85;;;2.10;71.10;;;;;;5100205;28;20058;-79
2021/01/03 10:34:38;;;;;;;31.02;22.90;;;2.10;70.50;;;;;;5117667;28;20643;-79
2021/01/03 10:37:10;;;;;;;29.10;22.08;;;2.10;70.40;;;;;;5101575;28;20035;-77
2021/01/03 10:39:42;;;;;;;31.65;22.67;;;2.10;70.50;;;;;;5120587;28;20047;-78
2021/01/03 10:42:14;;;;;;;29.98;22.25;;;2.20;70.40;;;;;;5122211;28;20098;-78
2021/01/03 10:44:45;;;;;;;32.85;22.60;;;2.20;70.50;;;;;;5123168;28;20049;-79
2021/01/03 10:47:16;;;;;;;32.92;23.17;;;2.20;70.40;;;;;;5121049;28;20101;-78
2021/01/03 10:49:48;;;;;;;29.60;22.88;;;2.30;70.20;;;;;;5121635;28;20031;-78
2021/01/03 10:52:19;;;;;;;28.67;20.60;;;2.40;70.20;;;;;;5120980;28;20055;-78
2021/01/03 10:54:51;;;;;;;28.17;20.52;;;2.40;69.80;;;;;;5099695;28;20066;-79
2021/01/03 10:57:22;;;;;;;27.33;21.45;;;2.60;70.40;;;;;;5118813;28;20098;-80
2021/01/03 10:59:56;;;;;;;27.30;20.60;;;2.60;69.30;;;;;;5106232;28;20047;-79
2021/01/03 11:02:27;;;;;;;28.45;21.08;;;2.80;69.70;;;;;;5121334;28;20079;-81
2021/01/03 11:04:59;;;;;;;26.95;20.75;;;2.80;68.70;;;;;;5116032;28;20913;-78
2021/01/03 11:07:31;;;;;;;27.80;20.60;;;2.90;68.60;;;;;;5100485;28;20060;-78
2021/01/03 11:10:06;;;;;;;25.70;19.55;;;3.00;68.60;;;;;;5101999;28;20130;-78
2021/01/03 11:12:37;;;;;;;29.48;22.55;;;3.00;67.50;;;;;;5117330;28;20055;-79
2021/01/03 11:15:10;;;;;;;24.13;20.15;;;3.10;68.20;;;;;;5102666;28;20063;-77
2021/01/03 11:17:56;;;;;;;26.05;21.67;;;3.10;67.40;;;;;;5116891;28;20121;-79
2021/01/03 11:20:27;;;;;;;25.33;20.25;;;3.20;67.40;;;;;;5118812;28;20714;-77
2021/01/03 11:22:59;;;;;;;28.23;21.48;;;3.30;67.30;;;;;;5120663;28;20053;-79
2021/01/03 11:25:31;;;;;;;26.98;20.17;;;3.30;67.40;;;;;;5118823;28;20053;-80
2021/01/03 11:28:04;;;;;;;27.95;21.58;;;3.30;67.20;;;;;;5115892;28;20043;-79
2021/01/03 11:30:35;;;;;;;26.33;20.95;;;3.50;66.90;;;;;;5101674;28;20040;-80
2021/01/03 11:33:07;;;;;;;27.23;21.08;;;3.50;67.10;;;;;;5117184;28;20051;-78
2021/01/03 11:35:39;;;;;;;26.27;20.83;;;3.60;66.90;;;;;;5121698;28;20111;-79
2021/01/03 11:38:10;;;;;;;27.15;21.60;;;3.60;66.40;;;;;;5104812;28;20075;-79
2021/01/03 11:40:42;;;;;;;28.70;22.30;;;3.70;66.30;;;;;;5097601;28;20078;-79
2021/01/03 11:43:13;;;;;;;30.88;22.50;;;3.70;66.20;;;;;;5101358;28;20047;-79
2021/01/03 11:45:44;;;;;;;31.77;23.33;;;3.80;66.20;;;;;;5116753;28;20101;-79
2021/01/03 11:48:16;;;;;;;28.45;22.50;;;3.70;66.00;;;;;;5114672;28;20047;-78
2021/01/03 11:50:47;;;;;;;29.58;21.85;;;3.80;66.00;;;;;;5101603;28;20071;-80
2021/01/03 11:53:19;;;;;;;30.08;22.65;;;3.70;65.60;;;;;;5117948;28;20097;-78
2021/01/03 11:55:50;;;;;;;27.50;20.88;;;3.80;65.30;;;;;;5118555;28;20048;-78
2021/01/03 11:58:21;;;;;;;26.70;21.60;;;3.80;65.70;;;;;;5122622;28;20524;-80
2021/01/03 12:00:53;;;;;;;28.83;22.42;;;3.80;65.50;;;;;;5122542;28;20079;-78
2021/01/03 12:03:25;;;;;;;29.65;21.67;;;3.80;65.70;;;;;;5121270;28;20639;-78
2021/01/03 12:05:57;;;;;;;25.45;20.17;;;3.70;64.90;;;;;;5119395;28;20054;-79
2021/01/03 12:08:28;;;;;;;26.60;20.48;;;3.70;64.80;;;;;;5115948;28;20441;-77
2021/01/03 12:10:59;;;;;;;25.50;19.70;;;3.60;65.50;;;;;;5114911;28;20054;-77
2021/01/03 12:13:31;;;;;;;29.27;20.42;;;3.60;65.00;;;;;;5120121;28;20035;-78
2021/01/03 12:16:03;;;;;;;28.30;22.05;;;3.50;65.30;;;;;;5117863;28;20043;-79
2021/01/03 12:18:34;;;;;;;24.88;20.30;;;3.40;65.40;;;;;;5116880;28;20039;-79
2021/01/03 12:21:06;;;;;;;26.20;20.42;;;3.30;65.70;;;;;;5119976;28;20130;-77
2021/01/03 12:23:37;;;;;;;26.13;20.27;;;3.20;65.90;;;;;;5086404;28;20055;-81
2021/01/03 12:26:09;;;;;;;24.85;19.85;;;3.20;65.90;;;;;;5119302;28;20039;-78
2021/01/03 12:28:40;;;;;;;26.77;18.75;;;3.20;65.70;;;;;;5087892;28;20040;-76
2021/01/03 12:31:13;;;;;;;24.58;18.40;;;3.10;65.30;;;;;;5118563;28;20128;-75
2021/01/03 12:33:44;;;;;;;30.15;23.00;;;3.00;65.30;;;;;;5118337;28;20485;-75
2021/01/03 12:36:19;;;;;;;29.88;22.95;;;2.90;65.60;;;;;;5118759;28;20097;-76
2021/01/03 12:38:50;;;;;;;24.05;19.38;;;2.90;66.40;;;;;;5122207;28;20071;-75
2021/01/03 12:41:23;;;;;;;26.80;19.73;;;2.90;66.10;;;;;;5119756;28;20058;-75
2021/01/03 12:43:55;;;;;;;26.55;19.23;;;2.90;66.30;;;;;;5121413;28;20043;-75
2021/01/03 12:46:32;;;;;;;24.50;19.38;;;2.90;66.60;;;;;;5102677;28;20428;-74
2021/01/03 12:49:04;;;;;;;27.58;20.95;;;2.90;66.60;;;;;;5120296;28;20031;-75
2021/01/03 12:51:36;;;;;;;27.15;20.58;;;2.90;66.60;;;;;;5120180;28;20047;-75
2021/01/03 12:54:09;;;;;;;31.52;21.52;;;3.00;66.40;;;;;;5104145;28;20426;-75
2021/01/03 12:56:40;;;;;;;28.08;20.00;;;3.00;66.00;;;;;;5119729;28;20047;-76
2021/01/03 12:59:12;;;;;;;29.95;19.88;;;3.00;66.30;;;;;;5119270;28;20051;-76
2021/01/03 13:01:44;;;;;;;25.85;20.42;;;3.10;66.70;;;;;;5113020;28;20098;-78
2021/01/03 13:04:16;;;;;;;28.75;21.98;;;3.10;66.10;;;;;;5110791;28;21291;-77
2021/01/03 13:06:51;;;;;;;37.83;28.58;;;3.10;66.20;;;;;;5094131;28;20059;-76
2021/01/03 13:09:23;;;;;;;50.95;38.72;;;3.10;66.60;;;;;;5115669;28;20728;-74
2021/01/03 13:11:55;;;;;;;47.20;33.75;;;3.10;66.20;;;;;;5116340;28;20078;-75
2021/01/03 13:14:26;;;;;;;27.75;21.60;;;3.10;66.00;;;;;;5103237;28;20062;-76
2021/01/03 13:16:58;;;;;;;26.42;19.98;;;3.10;66.10;;;;;;5119257;28;20410;-74